Time;durP1;ratioP1;P1;durP2;ratioP2;P2;SDS_P1;SDS_P2;PMS_P1;PMS_P2;Temp;Humidity;BMP_temperature;BMP_pressure;BME280_temperature;BME280_humidity;BME280_pressure;Samples;Min_cycle;Max_cycle;Signal;HPM_P1;HPM_P2
2022/08/11 00:00:07;;;;;;;5.32;1.58;;;;;;;21.43;44.42;101616.19;5074504;28;20036;-49
2022/08/11 00:02:39;;;;;;;1.33;1.20;;;;;;;21.40;42.58;101612.03;5074304;28;20025;-48
2022/08/11 00:05:11;;;;;;;4.63;1.00;;;;;;;21.33;44.02;101619.53;5056650;28;20425;-48
2022/08/11 00:07:49;;;;;;;1.48;1.00;;;;;;;21.20;44.07;101630.69;5074230;28;20400;-48
2022/08/11 00:10:19;;;;;;;0.70;0.60;;;;;;;21.19;43.13;101624.41;5074346;28;20085;-49
2022/08/11 00:12:55;;;;;;;1.88;1.10;;;;;;;21.15;44.00;101616.91;5074208;28;20037;-48
2022/08/11 00:15:23;;;;;;;1.50;0.80;;;;;;;21.17;43.42;101631.16;5074575;28;20052;-49
2022/08/11 00:17:57;;;;;;;0.98;0.80;;;;;;;21.16;43.99;101626.78;5075561;28;20362;-50
2022/08/11 00:20:31;;;;;;;0.68;0.65;;;;;;;21.05;44.51;101618.31;5077527;28;20037;-50
2022/08/11 00:23:05;;;;;;;1.05;0.82;;;;;;;20.94;44.42;101600.00;5075635;28;20028;-49
2022/08/11 00:25:37;;;;;;;0.90;0.73;;;;;;;20.99;44.55;101619.25;5077512;28;20098;-49
2022/08/11 00:28:03;;;;;;;1.17;0.80;;;;;;;20.91;44.29;101616.84;5074662;28;20033;-49
2022/08/11 00:30:40;;;;;;;2.08;1.20;;;;;;;20.80;45.74;101618.50;5074443;28;20028;-53
2022/08/11 00:33:06;;;;;;;2.08;1.00;;;;;;;20.74;44.70;101621.34;5073876;28;20472;-49
2022/08/11 00:35:33;;;;;;;1.17;0.82;;;;;;;20.52;44.65;101580.88;5056096;28;20388;-51
2022/08/11 00:38:00;;;;;;;1.27;0.90;;;;;;;20.67;44.64;101618.69;5074036;28;20120;-51
2022/08/11 00:40:37;;;;;;;4.43;1.00;;;;;;;20.61;45.50;101616.91;5073704;28;20078;-47
2022/08/11 00:43:42;;;;;;;1.58;0.80;;;;;;;20.58;46.45;101612.72;5073673;28;20054;-47
2022/08/11 00:46:13;;;;;;;;;;;;;;;20.51;47.69;101609.25;5059430;28;20029;-48
2022/08/11 00:48:49;;;;;;;1.15;0.85;;;;;;;20.45;45.58;101600.09;5073904;28;19908;-49
2022/08/11 00:51:43;;;;;;;0.70;0.70;;;;;;;20.45;47.00;101608.28;5055642;28;20044;-49
2022/08/11 00:54:48;;;;;;;1.27;1.17;;;;;;;20.40;47.34;101599.94;5073819;28;20036;-49
2022/08/11 00:57:38;;;;;;;1.13;1.00;;;;;;;20.31;46.67;101593.97;5041893;28;20481;-48
2022/08/11 01:00:14;;;;;;;5.10;1.20;;;;;;;20.20;46.43;101586.56;5074529;28;20423;-52
2022/08/11 01:03:07;;;;;;;2.08;1.77;;;;;;;20.00;46.25;101558.72;5072704;28;20054;-52
2022/08/11 01:06:08;;;;;;;2.38;1.30;;;;;;;20.22;46.95;101608.16;5042131;28;20388;-50
2022/08/11 01:09:00;;;;;;;1.73;1.15;;;;;;;20.02;46.83;101589.31;5058796;28;20029;-50
2022/08/11 01:11:52;;;;;;;1.42;1.20;;;;;;;20.05;46.77;101597.06;5072638;28;20037;-51
2022/08/11 01:14:52;;;;;;;1.92;1.17;;;;;;;20.00;47.79;101597.75;5058912;28;20043;-50
2022/08/11 01:17:55;;;;;;;1.20;0.90;;;;;;;19.92;48.15;101601.59;5072582;28;20092;-50
2022/08/11 01:20:59;;;;;;;2.38;0.95;;;;;;;19.83;48.28;101596.69;5073032;28;20067;-51
2022/08/11 01:24:05;;;;;;;3.67;0.90;;;;;;;19.86;48.02;101597.06;5072653;28;20366;-48
2022/08/11 01:27:01;;;;;;;0.85;0.77;;;;;;;19.80;48.43;101603.44;5058289;28;20047;-50
2022/08/11 01:30:07;;;;;;;1.08;0.98;;;;;;;19.75;48.16;101608.75;5072211;28;20028;-51
2022/08/11 01:33:03;;;;;;;0.60;0.60;;;;;;;19.65;48.75;101592.88;5058476;28;20034;-50
2022/08/11 01:35:59;;;;;;;1.08;0.88;;;;;;;19.59;48.72;101592.94;5072444;28;20025;-48
2022/08/11 01:39:04;;;;;;;2.33;1.10;;;;;;;19.51;49.19;101592.19;5071949;28;20029;-49
2022/08/11 01:45:18;;;;;;;4.10;1.55;;;;;;;19.33;49.32;101597.59;5057980;28;20020;-50
2022/08/11 01:48:07;;;;;;;4.20;1.85;;;;;;;19.22;49.30;101587.44;5058193;28;20054;-48
2022/08/11 01:51:02;;;;;;;2.63;2.10;;;;;;;19.11;50.22;101580.81;5071876;28;20051;-51
2022/08/11 01:53:52;;;;;;;3.13;1.65;;;;;;;19.10;50.17;101585.44;5072196;28;20039;-48
2022/08/11 01:56:41;;;;;;;1.52;1.42;;;;;;;19.00;50.23;101576.13;5072154;28;20029;-48
2022/08/11 01:59:33;;;;;;;2.50;1.70;;;;;;;19.00;50.50;101579.69;5071620;28;20048;-49
2022/08/11 02:02:44;;;;;;;1.52;1.30;;;;;;;18.93;50.03;101579.72;5072049;28;20029;-51
2022/08/11 02:05:50;;;;;;;1.60;1.20;;;;;;;18.92;50.64;101585.41;5071881;28;20035;-51
2022/08/11 02:08:55;;;;;;;6.18;1.48;;;;;;;18.82;51.26;101579.63;5057879;28;20033;-49
2022/08/11 02:11:33;;;;;;;1.40;1.20;;;;;;;18.76;49.38;101586.75;5057907;28;20135;-50
2022/08/11 02:14:11;;;;;;;1.20;1.02;;;;;;;18.75;49.68;101587.78;5076699;28;20032;-49
2022/08/11 02:17:07;;;;;;;1.77;1.20;;;;;;;18.76;50.32;101587.59;5076593;28;20036;-48
2022/08/11 02:25:58;;;;;;;1.08;1.00;;;;;;;18.48;50.34;101566.22;5061088;28;20056;-49
2022/08/11 02:28:41;;;;;;;1.13;1.00;;;;;;;18.48;50.21;101573.53;5075014;28;20059;-48
2022/08/11 02:34:23;;;;;;;1.30;1.20;;;;;;;18.28;51.23;101574.50;5061268;28;20036;-49
2022/08/11 02:37:15;;;;;;;1.20;1.10;;;;;;;18.29;51.76;101583.47;5058503;28;20036;-49
2022/08/11 02:40:04;;;;;;;1.25;1.15;;;;;;;18.26;50.65;101582.03;5075232;28;20111;-48
2022/08/11 02:42:54;;;;;;;2.70;0.93;;;;;;;18.16;51.08;101571.63;5074976;28;20020;-50
2022/08/11 02:45:53;;;;;;;1.83;1.30;;;;;;;18.13;52.41;101582.94;5044184;28;20031;-49
2022/08/11 02:52:09;;;;;;;1.40;1.30;;;;;;;18.09;52.29;101584.44;5060628;28;20397;-49
2022/08/11 02:54:49;;;;;;;2.85;1.10;;;;;;;18.09;50.87;101579.00;5060870;28;20028;-50
2022/08/11 02:57:26;;;;;;;2.10;1.33;;;;;;;18.10;51.35;101580.63;5057665;28;20044;-48
2022/08/11 03:00:06;;;;;;;1.85;1.00;;;;;;;18.09;51.11;101589.00;5075474;28;20531;-48
2022/08/11 03:02:59;;;;;;;1.33;1.00;;;;;;;18.06;51.53;101584.03;5075349;28;20111;-48
2022/08/11 03:05:41;;;;;;;1.55;1.10;;;;;;;17.97;51.02;101573.38;5060951;28;20067;-48
2022/08/11 03:08:28;;;;;;;1.42;1.30;;;;;;;17.90;51.99;101563.59;5076670;28;20024;-48
2022/08/11 03:17:39;;;;;;;1.42;1.13;;;;;;;17.76;52.96;101574.47;5060335;28;20558;-49
2022/08/11 03:20:35;;;;;;;1.00;0.90;;;;;;;17.71;53.39;101571.56;5075077;28;20040;-51
2022/08/11 03:23:16;;;;;;;2.60;1.50;;;;;;;17.65;52.65;101574.31;5074220;28;20024;-48
2022/08/11 03:26:09;;;;;;;2.20;1.20;;;;;;;17.63;53.52;101573.69;5074496;28;20039;-48
2022/08/11 03:28:53;;;;;;;1.50;1.40;;;;;;;17.57;54.32;101578.94;5057914;28;20357;-48
2022/08/11 03:31:26;;;;;;;1.40;1.10;;;;;;;17.53;53.35;101576.84;5075940;28;20477;-48
2022/08/11 03:34:02;;;;;;;1.80;1.20;;;;;;;17.47;53.24;101580.41;5075164;28;20040;-49
2022/08/11 03:36:52;;;;;;;1.23;1.13;;;;;;;17.41;54.34;101573.94;5075397;28;20032;-50
2022/08/11 03:39:30;;;;;;;1.50;1.20;;;;;;;17.34;53.44;101570.41;5075226;28;20039;-48
2022/08/11 03:42:11;;;;;;;3.97;1.30;;;;;;;17.31;54.04;101565.38;5058384;28;20441;-51
2022/08/11 03:44:54;;;;;;;1.20;1.10;;;;;;;17.25;54.19;101564.34;5075781;28;20037;-50
2022/08/11 03:47:57;;;;;;;2.20;1.20;;;;;;;17.21;55.15;101563.13;5075002;28;20032;-48
2022/08/11 03:50:51;;;;;;;1.10;1.00;;;;;;;17.09;54.71;101556.66;5074638;28;20044;-48
2022/08/11 03:53:48;;;;;;;2.00;1.20;;;;;;;17.06;55.38;101560.63;5074132;28;20036;-48
2022/08/11 03:56:40;;;;;;;1.83;1.17;;;;;;;16.94;54.59;101538.72;5074470;28;20029;-48
2022/08/11 03:59:34;;;;;;;2.22;1.20;;;;;;;17.05;55.83;101553.53;5074973;28;20032;-48
2022/08/11 04:02:33;;;;;;;1.13;1.05;;;;;;;16.99;55.37;101557.06;5057249;28;20067;-48
2022/08/11 04:05:38;;;;;;;0.82;0.80;;;;;;;16.94;55.85;101557.72;5060008;28;20500;-48
2022/08/11 04:08:24;;;;;;;;;;;;;;;16.93;56.99;101563.34;5061022;28;20056;-48
2022/08/11 04:11:00;;;;;;;;;;;;;;;16.92;57.29;101556.22;5060384;28;19913;-49
2022/08/11 04:17:20;;;;;;;1.75;1.05;;;;;;;16.82;55.51;101546.63;5048454;28;20575;-51
2022/08/11 04:20:20;;;;;;;3.38;1.15;;;;;;;16.80;55.55;101551.41;5074008;28;20033;-48
2022/08/11 04:23:25;;;;;;;1.20;1.10;;;;;;;16.78;56.19;101556.19;5073667;28;20028;-47
2022/08/11 04:26:31;;;;;;;1.33;1.20;;;;;;;16.73;56.08;101555.16;5073793;28;20056;-47
2022/08/11 04:29:16;;;;;;;;;;;;;;;16.68;57.49;101561.22;5057575;28;20043;-47
2022/08/11 04:32:07;;;;;;;2.40;1.08;;;;;;;16.47;56.60;101554.06;5059775;28;19908;-48
2022/08/11 04:35:13;;;;;;;3.00;1.50;;;;;;;16.59;56.35;101557.88;5073653;28;20047;-52
2022/08/11 04:38:19;;;;;;;4.90;1.30;;;;;;;16.43;57.09;101548.22;5059375;28;20111;-48
2022/08/11 04:41:25;;;;;;;2.30;1.38;;;;;;;16.56;56.60;101565.56;5059583;28;20024;-49
2022/08/11 04:44:31;;;;;;;2.42;1.58;;;;;;;16.53;56.92;101568.69;5059618;28;20024;-51
2022/08/11 05:02:57;;;;;;;2.75;1.33;;;;;;;16.34;58.15;101573.03;5059500;28;20026;-47
2022/08/11 05:05:54;;;;;;;1.60;1.50;;;;;;;16.32;57.53;101564.28;5073552;28;20067;-49
2022/08/11 05:08:59;;;;;;;3.58;1.50;;;;;;;16.30;57.99;101572.59;5060039;28;20435;-48
2022/08/11 05:12:04;;;;;;;1.63;1.50;;;;;;;16.33;58.25;101577.63;5042367;28;20401;-47
2022/08/11 05:34:51;;;;;;;5.07;1.98;;;;;;;16.59;57.11;101576.84;5058344;28;20473;-49
2022/08/11 05:37:32;;;;;;;2.10;1.98;;;;;;;16.62;58.22;101584.59;5071830;28;20028;-49
2022/08/11 05:56:58;;;;;;;2.42;2.03;;;;;;;16.77;57.61;101597.09;5056001;28;20052;-53
2022/08/11 05:59:27;;;;;;;2.90;2.58;;;;;;;16.80;58.04;101596.69;5057214;28;20147;-53
2022/08/11 06:02:00;;;;;;;2.70;2.20;;;;;;;16.92;57.49;101594.22;5056819;28;20024;-53
2022/08/11 06:04:28;;;;;;;5.03;2.25;;;;;;;16.85;57.33;101580.66;5055436;28;20079;-51
2022/08/11 06:06:57;;;;;;;7.85;2.10;;;;;;;16.87;57.23;101578.59;5071842;28;20029;-50
2022/08/11 06:09:34;;;;;;;1.52;1.42;;;;;;;16.97;57.07;101587.13;5056953;28;20123;-51
2022/08/11 06:12:07;;;;;;;1.48;1.38;;;;;;;17.01;56.89;101587.53;5057087;28;20064;-50
2022/08/11 06:14:40;;;;;;;4.10;1.90;;;;;;;17.01;57.15;101590.25;5056942;28;20033;-50
2022/08/11 06:17:06;;;;;;;4.43;2.10;;;;;;;17.07;56.73;101592.16;5056605;28;20025;-50
2022/08/11 06:19:37;;;;;;;4.20;2.70;;;;;;;16.94;58.12;101571.28;5056685;28;20037;-52
2022/08/11 06:22:04;;;;;;;4.53;3.65;;;;;;;17.00;60.63;101588.59;5056372;28;20060;-51
2022/08/11 06:24:31;;;;;;;3.03;2.72;;;;;;;16.99;59.44;101589.63;5071371;28;20079;-50
2022/08/11 06:26:58;;;;;;;6.50;2.83;;;;;;;17.07;59.22;101594.88;5056373;28;20025;-49
2022/08/11 06:29:25;;;;;;;4.22;3.55;;;;;;;17.02;59.69;101581.91;5056198;28;20036;-48
2022/08/11 06:32:01;;;;;;;9.32;3.20;;;;;;;17.05;59.65;101567.09;5055811;28;20040;-50
2022/08/11 06:34:37;;;;;;;3.50;2.75;;;;;;;17.04;60.51;101573.56;5056062;28;20071;-50
2022/08/11 06:37:34;;;;;;;6.15;5.45;;;;;;;16.99;64.45;101579.63;5055915;28;20502;-49
2022/08/11 06:40:08;;;;;;;7.57;6.50;;;;;;;16.88;65.12;101571.25;5067242;28;20491;-49
2022/08/11 06:42:47;;;;;;;4.75;3.67;;;;;;;16.88;61.99;101569.38;5054536;28;20491;-49
2022/08/11 06:45:36;;;;;;;6.57;4.50;;;;;;;17.05;64.91;101580.69;5054654;28;20033;-51
2022/08/11 06:48:05;;;;;;;10.55;6.28;;;;;;;16.97;65.51;101575.44;5055496;28;20033;-49
2022/08/11 06:53:19;;;;;;;6.47;5.60;;;;;;;16.99;65.04;101584.22;5060517;28;20472;-49
2022/08/11 07:01:45;;;;;;;9.15;5.22;;;;;;;17.25;63.04;101586.06;5043922;28;20036;-48
2022/08/11 07:04:14;;;;;;;7.28;6.57;;;;;;;17.29;63.90;101590.06;5076018;28;20039;-49
2022/08/11 07:16:07;;;;;;;7.97;6.80;;;;;;;17.25;64.71;101591.50;5060463;28;20147;-49
2022/08/11 07:30:05;;;;;;;5.45;4.90;;;;;;;17.72;63.71;101583.28;5060558;28;20031;-50
2022/08/11 07:32:36;;;;;;;11.70;7.65;;;;;;;17.83;63.53;101601.66;5074887;28;20119;-51
2022/08/11 07:35:12;;;;;;;5.88;5.28;;;;;;;18.02;63.15;101599.09;5075764;28;20039;-49
2022/08/11 07:37:41;;;;;;;12.10;8.25;;;;;;;18.10;65.19;101607.81;5075533;28;20032;-51
2022/08/11 07:40:08;;;;;;;9.65;5.43;;;;;;;18.28;63.59;101607.13;5057558;28;20496;-50
2022/08/11 07:42:36;;;;;;;6.78;5.47;;;;;;;18.39;63.24;101600.19;5075467;28;20028;-49
2022/08/11 07:53:28;;;;;;;8.45;5.78;;;;;;;18.36;62.63;101597.88;5060091;28;20102;-50
2022/08/11 07:55:57;;;;;;;11.77;8.95;;;;;;;18.42;63.56;101596.19;5075118;28;20120;-50
2022/08/11 08:18:01;;;;;;;17.00;10.25;;;;;;;18.71;65.25;101587.41;5042645;28;20120;-53
2022/08/11 08:20:33;;;;;;;14.82;10.77;;;;;;;18.83;66.46;101590.28;5074904;28;20377;-49
2022/08/11 08:23:01;;;;;;;8.73;7.78;;;;;;;18.92;65.06;101578.06;5074382;28;20035;-54
2022/08/11 08:25:30;;;;;;;10.50;9.23;;;;;;;19.00;64.16;101576.97;5073203;28;20108;-50
2022/08/11 08:27:58;;;;;;;15.75;10.65;;;;;;;19.17;64.18;101582.69;5056465;28;20086;-54
2022/08/11 08:33:22;;;;;;;18.10;11.73;;;;;;;19.38;64.42;101586.88;5060554;28;20052;-50
2022/08/11 08:36:10;;;;;;;17.63;11.35;;;;;;;19.46;63.81;101580.28;5075249;28;20491;-53
2022/08/11 08:38:48;;;;;;;17.45;10.10;;;;;;;19.65;63.66;101589.31;5075894;28;20021;-50
2022/08/11 08:41:21;;;;;;;13.98;8.80;;;;;;;19.79;62.60;101585.41;5076305;28;20029;-49
2022/08/11 08:43:52;;;;;;;18.80;10.07;;;;;;;19.86;62.74;101583.44;5074600;28;20025;-52
2022/08/11 08:46:24;;;;;;;13.82;9.73;;;;;;;20.05;62.21;101580.69;5057088;28;20050;-49
2022/08/11 08:48:51;;;;;;;15.20;9.38;;;;;;;20.23;62.77;101583.41;5073456;28;20056;-48
2022/08/11 08:51:33;;;;;;;9.20;7.47;;;;;;;20.41;61.40;101582.53;5074941;28;20052;-52
2022/08/11 08:54:05;;;;;;;6.90;6.20;;;;;;;20.65;60.70;101577.16;5075359;28;20025;-50
2022/08/11 08:56:33;;;;;;;12.95;9.40;;;;;;;20.98;60.49;101570.31;5057605;28;20024;-50
2022/08/11 08:59:01;;;;;;;8.55;7.60;;;;;;;21.91;58.58;101551.34;5076019;28;20035;-51
2022/08/11 09:01:32;;;;;;;8.20;6.35;;;;;;;23.49;55.11;101545.00;5074544;28;20107;-51
2022/08/11 09:03:59;;;;;;;7.53;6.25;;;;;;;24.82;52.09;101553.91;5073476;28;20027;-49
2022/08/11 09:06:28;;;;;;;3.95;3.33;;;;;;;25.78;50.09;101543.75;5074915;28;20467;-53
2022/08/11 09:08:55;;;;;;;9.48;5.65;;;;;;;26.67;48.33;101540.97;5074459;28;20028;-50
2022/08/11 09:14:09;;;;;;;3.65;3.35;;;;;;;28.08;44.57;101536.44;5060101;28;20124;-52
2022/08/11 09:16:38;;;;;;;3.20;2.90;;;;;;;28.85;44.35;101533.09;5075501;28;20051;-55
2022/08/11 09:19:05;;;;;;;11.07;5.20;;;;;;;29.51;42.50;101526.03;5074068;28;20035;-50
2022/08/11 09:21:31;;;;;;;3.50;3.20;;;;;;;30.07;41.10;101527.25;5073840;28;20029;-51
2022/08/11 09:29:32;;;;;;;4.88;2.75;;;;;;;32.05;37.62;101518.63;5062748;28;20093;-49
2022/08/11 09:31:59;;;;;;;9.15;3.83;;;;;;;32.24;37.18;101516.47;5059313;28;20492;-50
2022/08/11 09:34:26;;;;;;;9.85;3.70;;;;;;;32.79;36.45;101520.97;5077783;28;20028;-52
2022/08/11 09:44:45;;;;;;;6.50;2.75;;;;;;;34.25;33.83;101498.59;5062466;28;20032;-55
2022/08/11 09:45:13;;;;;;;5.13;2.40;;;;;;;34.27;32.89;101503.84;5062659;28;20028;-52
2022/08/11 09:47:41;;;;;;;6.70;2.13;;;;;;;34.64;32.71;101507.03;5077443;28;20024;-50
2022/08/11 09:50:08;;;;;;;5.53;2.53;;;;;;;35.21;31.13;101503.91;5076724;28;20051;-54
2022/08/11 09:52:39;;;;;;;3.67;2.22;;;;;;;35.61;30.82;101499.91;5077491;28;20036;-51
2022/08/11 09:55:09;;;;;;;5.57;1.67;;;;;;;36.02;30.80;101493.53;5076068;28;20028;-52
2022/08/11 10:00:28;;;;;;;2.83;1.88;;;;;;;36.73;28.22;101494.50;5062108;28;20059;-56
2022/08/11 10:02:56;;;;;;;12.73;2.50;;;;;;;36.85;25.75;101501.28;5077279;28;20457;-54
2022/08/11 10:08:11;;;;;;;3.58;1.60;;;;;;;37.39;26.47;101490.69;5061955;28;20032;-54
2022/08/11 10:10:38;;;;;;;1.98;1.35;;;;;;;37.67;26.22;101486.31;5058916;28;20493;-51
2022/08/11 10:13:13;;;;;;;1.48;1.27;;;;;;;37.82;24.81;101481.94;5077091;28;20036;-52
2022/08/11 10:15:42;;;;;;;1.40;1.25;;;;;;;38.35;24.89;101477.06;5076955;28;20036;-49
2022/08/11 10:21:08;;;;;;;2.38;1.70;;;;;;;38.81;24.33;101483.13;5061677;28;20036;-62
2022/08/11 10:34:47;;;;;;;3.45;1.30;;;;;;;39.49;22.52;101451.06;5061639;28;20028;-57
2022/08/11 10:37:14;;;;;;;6.10;1.27;;;;;;;39.72;21.30;101458.75;5076426;28;20040;-54
2022/08/11 10:39:41;;;;;;;2.30;1.27;;;;;;;40.17;22.40;101450.84;5075972;28;20056;-51
2022/08/11 10:44:57;;;;;;;5.30;1.20;;;;;;;40.66;20.73;101438.03;5061301;28;20033;-50
2022/08/11 10:47:40;;;;;;;2.47;1.35;;;;;;;40.21;21.55;101440.44;5076635;28;20360;-51
2022/08/11 11:01:23;;;;;;;2.05;1.27;;;;;;;41.70;18.58;101439.59;5061994;28;20033;-52
2022/08/11 11:03:54;;;;;;;2.90;1.20;;;;;;;41.88;19.07;101437.81;5058663;28;20029;-51
2022/08/11 11:06:43;;;;;;;4.82;1.20;;;;;;;41.87;17.66;101441.03;5076940;28;20304;-52
2022/08/11 11:09:18;;;;;;;2.85;1.40;;;;;;;41.83;16.42;101440.16;5059491;28;20033;-51
2022/08/11 11:18:03;;;;;;;5.93;1.50;;;;;;;42.80;17.26;101424.19;5047015;28;20473;-52
2022/08/11 11:20:38;;;;;;;6.40;1.73;;;;;;;41.94;17.55;101429.78;5076169;28;20347;-52
2022/08/11 11:23:19;;;;;;;3.60;1.38;;;;;;;42.40;16.99;101423.03;5076275;28;20020;-49
2022/08/11 11:26:18;;;;;;;3.35;1.50;;;;;;;42.74;14.94;101416.06;5075326;28;20037;-53
2022/08/11 11:29:15;;;;;;;4.05;1.70;;;;;;;42.25;17.01;101419.25;5074986;28;20039;-49
2022/08/11 11:32:15;;;;;;;4.93;1.50;;;;;;;42.48;15.21;101416.25;5060941;28;20378;-51
2022/08/11 11:35:10;;;;;;;4.60;1.30;;;;;;;43.55;14.52;101415.34;5074524;28;20424;-51
2022/08/11 11:37:37;;;;;;;6.38;1.50;;;;;;;42.85;15.40;101416.16;5074573;28;20036;-53
2022/08/11 11:40:09;;;;;;;4.35;1.42;;;;;;;41.80;16.21;101424.03;5075653;28;20185;-53
2022/08/11 11:42:36;;;;;;;4.50;1.88;;;;;;;42.33;15.46;101409.66;5075234;28;20441;-53
2022/08/11 11:45:03;;;;;;;4.88;1.70;;;;;;;42.22;15.90;101405.91;5075003;28;20123;-54
2022/08/11 11:47:31;;;;;;;6.90;1.33;;;;;;;43.01;16.45;101404.56;5073714;28;20103;-55
2022/08/11 11:49:57;;;;;;;4.65;1.50;;;;;;;42.85;16.26;101413.31;5073557;28;20082;-53
2022/08/11 11:52:23;;;;;;;8.15;2.00;;;;;;;42.12;15.68;101416.72;5056986;28;20038;-54
2022/08/11 11:54:53;;;;;;;4.75;1.70;;;;;;;42.18;14.83;101400.22;5074142;28;20028;-50
2022/08/11 12:02:57;;;;;;;6.68;1.80;;;;;;;43.67;14.36;101379.00;5060158;28;20025;-50
2022/08/11 12:05:24;;;;;;;3.63;1.30;;;;;;;44.03;15.56;101389.63;5075446;28;20483;-49
2022/08/11 12:10:39;;;;;;;9.60;2.08;;;;;;;44.69;13.23;101388.44;5060378;28;20020;-50
2022/08/11 12:15:52;;;;;;;2.40;1.35;;;;;;;44.73;12.89;101375.91;5059876;28;20025;-51
2022/08/11 12:18:18;;;;;;;1.88;1.40;;;;;;;43.90;13.96;101385.56;5073653;28;20071;-51
2022/08/11 12:20:45;;;;;;;3.08;1.35;;;;;;;43.96;13.98;101369.78;5075102;28;20349;-53
2022/08/11 12:28:46;;;;;;;3.30;1.40;;;;;;;43.41;13.90;101365.19;5060060;28;20357;-55
2022/08/11 12:31:13;;;;;;;5.05;1.40;;;;;;;43.61;13.95;101363.66;5074924;28;20030;-51
2022/08/11 12:33:40;;;;;;;5.47;1.40;;;;;;;44.42;13.36;101361.34;5074245;28;20399;-53
2022/08/11 12:36:08;;;;;;;4.80;1.98;;;;;;;44.03;12.52;101355.66;5074248;28;20033;-52
2022/08/11 12:38:35;;;;;;;2.08;1.17;;;;;;;43.54;13.45;101357.97;5074428;28;20082;-52
2022/08/11 12:46:36;;;;;;;5.05;1.80;;;;;;;43.12;13.49;101345.25;5060079;28;20071;-52
2022/08/11 12:52:03;;;;;;;7.90;1.95;;;;;;;43.29;13.61;101344.50;5059540;28;20404;-52
2022/08/11 12:54:34;;;;;;;5.25;1.10;;;;;;;44.22;13.46;101343.13;5073759;28;20139;-51
2022/08/11 13:05:25;;;;;;;4.72;1.30;;;;;;;45.39;12.63;101321.41;5059282;28;20078;-53
2022/08/11 13:07:52;;;;;;;4.05;1.20;;;;;;;45.29;12.45;101313.75;5073979;28;20024;-54
2022/08/11 13:13:07;;;;;;;2.30;1.27;;;;;;;46.35;11.59;101318.28;5058369;28;20213;-51
2022/08/11 13:15:36;;;;;;;6.25;1.40;;;;;;;43.94;12.16;101307.91;5073656;28;20044;-52
2022/08/11 13:18:02;;;;;;;6.10;1.40;;;;;;;44.03;13.27;101313.97;5073787;28;20113;-54
2022/08/11 13:20:29;;;;;;;1.48;1.38;;;;;;;44.91;13.17;101307.03;5073765;28;20120;-51
2022/08/11 13:22:57;;;;;;;3.38;1.30;;;;;;;44.94;12.54;101303.38;5073590;28;20353;-50
2022/08/11 13:25:26;;;;;;;9.43;1.38;;;;;;;45.52;11.99;101304.69;5074031;28;20046;-51
2022/08/11 13:27:56;;;;;;;8.63;1.35;;;;;;;46.34;11.44;101302.44;5072567;28;20035;-53
2022/08/11 13:33:13;;;;;;;5.75;1.30;;;;;;;45.35;11.58;101302.78;5041610;28;20027;-53
2022/08/11 13:35:40;;;;;;;5.03;1.48;;;;;;;45.56;11.83;101302.66;5073283;28;20478;-53
2022/08/11 13:38:12;;;;;;;1.73;1.30;;;;;;;45.40;11.57;101308.03;5072332;28;20033;-53
2022/08/11 13:40:39;;;;;;;1.33;1.20;;;;;;;45.78;12.62;101294.81;5055703;28;20033;-51
2022/08/11 13:43:05;;;;;;;4.75;1.42;;;;;;;45.85;11.90;101279.75;5055581;28;20025;-53
2022/08/11 13:45:34;;;;;;;2.40;1.30;;;;;;;46.15;12.38;101276.25;5073194;28;20028;-54
2022/08/11 13:48:02;;;;;;;2.95;1.02;;;;;;;46.87;12.17;101284.03;5073329;28;20032;-53
2022/08/11 13:53:16;;;;;;;4.63;1.13;;;;;;;47.34;10.57;101277.72;5058604;28;20032;-49
2022/08/11 13:55:42;;;;;;;6.15;1.40;;;;;;;46.20;10.78;101268.53;5073755;28;20367;-54
2022/08/11 13:58:09;;;;;;;4.15;1.60;;;;;;;45.58;11.10;101277.50;5055666;28;20056;-55
2022/08/11 14:00:37;;;;;;;6.93;1.40;;;;;;;45.46;11.54;101278.00;5072236;28;20031;-53
2022/08/11 14:03:07;;;;;;;4.18;1.20;;;;;;;46.35;11.15;101261.47;5073269;28;20029;-53
2022/08/11 14:05:39;;;;;;;4.75;1.50;;;;;;;47.35;9.47;101259.44;5073436;28;20037;-51
2022/08/11 14:08:12;;;;;;;8.93;1.30;;;;;;;47.91;9.59;101255.31;5075179;28;20111;-55
2022/08/11 14:10:38;;;;;;;4.13;1.40;;;;;;;47.67;10.03;101263.84;5076615;28;20028;-54
2022/08/11 14:16:03;;;;;;;1.77;1.20;;;;;;;48.75;9.75;101254.13;5048889;28;20037;-51
2022/08/11 14:18:31;;;;;;;3.95;0.93;;;;;;;49.78;9.23;101261.56;5077013;28;20028;-54
2022/08/11 14:23:51;;;;;;;2.97;1.50;;;;;;;48.55;9.22;101247.59;5062324;28;20479;-55
2022/08/11 14:26:22;;;;;;;1.70;1.17;;;;;;;47.81;9.93;101246.50;5076881;28;20025;-51
2022/08/11 14:28:54;;;;;;;3.55;1.35;;;;;;;48.20;9.41;101250.72;5075889;28;20036;-51
2022/08/11 14:31:22;;;;;;;2.85;1.30;;;;;;;49.39;9.25;101239.63;5076818;28;20514;-48
2022/08/11 14:33:49;;;;;;;2.13;1.00;;;;;;;50.13;8.80;101230.47;5076618;28;20044;-52
2022/08/11 14:36:16;;;;;;;2.63;1.00;;;;;;;50.39;8.53;101229.72;5059136;28;20056;-52
2022/08/11 14:38:43;;;;;;;4.82;1.25;;;;;;;51.30;7.27;101230.25;5076761;28;20392;-53
2022/08/11 14:49:29;;;;;;;5.38;1.10;;;;;;;50.17;7.89;101218.91;5061251;28;20056;-55
2022/08/11 14:51:57;;;;;;;5.43;1.13;;;;;;;51.66;7.13;101211.09;5076295;28;20078;-52
2022/08/11 14:57:13;;;;;;;5.03;1.35;;;;;;;45.09;11.43;101222.69;5061461;28;20032;-53
2022/08/11 14:59:41;;;;;;;3.38;1.10;;;;;;;43.60;12.28;101195.09;5076448;28;20036;-53
2022/08/11 15:04:58;;;;;;;5.03;1.13;;;;;;;43.00;13.15;101192.94;5061782;28;20037;-53
2022/08/11 15:07:28;;;;;;;3.72;1.10;;;;;;;42.64;12.79;101198.47;5075444;28;20035;-53
2022/08/11 15:10:04;;;;;;;5.05;1.55;;;;;;;41.62;12.75;101201.75;5076473;28;20123;-56
2022/08/11 15:12:32;;;;;;;1.95;1.40;;;;;;;40.89;14.59;101207.00;5076279;28;20032;-54
2022/08/11 15:17:47;;;;;;;6.38;1.30;;;;;;;39.71;14.40;101189.94;5061762;28;20032;-56
2022/08/11 15:25:54;;;;;;;1.50;1.23;;;;;;;40.42;14.85;101190.31;5061126;28;20032;-53
2022/08/11 15:45:46;;;;;;;9.50;1.48;;;;;;;39.80;14.66;101161.56;5060385;28;20044;-52
2022/08/11 15:48:10;;;;;;;4.38;1.33;;;;;;;38.93;15.38;101164.78;5060391;28;20026;-53
2022/08/11 15:50:41;;;;;;;4.40;1.50;;;;;;;38.71;15.42;101155.97;5074993;28;20124;-52
2022/08/11 15:53:16;;;;;;;3.85;1.27;;;;;;;38.42;15.92;101167.72;5057407;28;20078;-53
2022/08/11 15:55:44;;;;;;;8.43;1.35;;;;;;;38.77;16.03;101153.66;5075262;28;20043;-50
2022/08/11 16:06:49;;;;;;;17.15;1.77;;;;;;;37.39;16.37;101153.63;5068121;28;20029;-48
2022/08/11 16:09:19;;;;;;;7.15;1.33;;;;;;;37.37;17.32;101158.75;5066404;28;20028;-50
2022/08/11 16:11:47;;;;;;;6.72;1.40;;;;;;;37.33;16.29;101139.06;5082555;28;20028;-49
2022/08/11 16:17:08;;;;;;;3.15;1.00;;;;;;;37.12;16.81;101139.25;5063808;28;20032;-50
2022/08/11 16:19:36;;;;;;;1.90;1.30;;;;;;;37.31;16.33;101146.19;5079689;28;20028;-53
2022/08/11 16:22:08;;;;;;;2.60;1.20;;;;;;;37.50;16.31;101134.25;5057080;28;20032;-50
2022/08/11 16:24:38;;;;;;;8.43;1.15;;;;;;;37.30;16.23;101127.75;5056895;28;20044;-49
2022/08/11 16:27:05;;;;;;;6.22;1.33;;;;;;;37.46;16.40;101139.75;5075094;28;20117;-49
2022/08/11 16:29:36;;;;;;;2.17;1.30;;;;;;;37.16;16.95;101131.78;5074912;28;20154;-51
2022/08/11 16:32:22;;;;;;;6.82;1.25;;;;;;;36.87;16.81;101134.94;5074261;28;20039;-50
2022/08/11 16:40:28;;;;;;;6.03;1.42;;;;;;;36.20;17.29;101136.19;5059655;28;20025;-53
2022/08/11 16:48:33;;;;;;;2.60;1.50;;;;;;;35.92;17.73;101146.44;5059026;28;20041;-53
2022/08/11 16:50:59;;;;;;;5.60;1.80;;;;;;;35.62;17.83;101127.88;5069211;28;20053;-51
2022/08/11 16:53:28;;;;;;;2.22;1.50;;;;;;;35.84;18.33;101125.81;5054329;28;20440;-53
2022/08/11 16:55:57;;;;;;;5.32;1.98;;;;;;;35.71;18.33;101129.78;5054849;28;20071;-53
2022/08/11 17:01:11;;;;;;;4.85;1.58;;;;;;;35.13;18.78;101138.16;5053717;28;20025;-50
2022/08/11 17:14:59;;;;;;;4.13;2.33;;;;;;;34.55;19.22;101104.50;5039510;28;20027;-49
2022/08/11 17:17:32;;;;;;;2.85;1.75;;;;;;;34.45;19.32;101108.53;5054195;28;20079;-48
2022/08/11 17:20:06;;;;;;;10.68;1.88;;;;;;;34.38;19.16;101125.00;5054850;28;20028;-49
2022/08/11 17:25:27;;;;;;;1.77;1.50;;;;;;;34.24;19.42;101120.50;5053187;28;20432;-53
2022/08/11 17:27:55;;;;;;;1.73;1.50;;;;;;;34.26;19.33;101131.31;5070120;28;20119;-53
2022/08/11 17:35:27;;;;;;;2.63;1.30;;;;;;;34.12;19.29;101135.16;5055310;28;20056;-52